This is the latest recevied weather packets stored in our database for station/object E22FEY-1. If no packets are shown the sender has not sent any weather packets the latest 10 day(s).
| Time | Temp. | Humidity | Pressure | Rain* | Wind** | Luminosity | Snow |
|---|---|---|---|---|---|---|---|
| 1778189842 | 31.11° C | 68% | 1007 hPa | - | - | 0 W/m² | - |
| 1778189731 | 31.67° C | 67% | 1007 hPa | - | - | 0 W/m² | - |
| 1778189622 | 31.11° C | 68% | 1007 hPa | - | - | 0 W/m² | - |
| 1778189512 | 30.56° C | 69% | 1007 hPa | - | - | 0 W/m² | - |
| 1778189400 | 31.67° C | 66% | 1007 hPa | - | - | 0 W/m² | - |
| 1778189291 | 31.11° C | 68% | 1007 hPa | - | - | 0 W/m² | - |
| 1778189181 | 31.11° C | 68% | 1007 hPa | - | - | 0 W/m² | - |
| 1778189073 | 30.56° C | 69% | 1007 hPa | - | - | 0 W/m² | - |
| 1778188961 | 31.11° C | 68% | 1007 hPa | - | - | 0 W/m² | - |
| 1778188851 | 31.67° C | 66% | 1007 hPa | - | - | 0 W/m² | - |
| 1778188741 | 31.67° C | 67% | 1007 hPa | - | - | 0 W/m² | - |
| 1778188631 | 32.22° C | 65% | 1007 hPa | - | - | 0 W/m² | - |
| 1778188518 | 31.67° C | 67% | 1007 hPa | - | - | 0 W/m² | - |
| 1778188407 | 31.11° C | 67% | 1007 hPa | - | - | 0 W/m² | - |
| 1778188294 | 31.11° C | 67% | 1007 hPa | - | - | 0 W/m² | - |
| 1778188184 | 31.11° C | 69% | 1007 hPa | - | - | 0 W/m² | - |
| 1778188075 | 30° C | 72% | 1007 hPa | - | - | 0 W/m² | - |
| 1778187964 | 30° C | 72% | 1007 hPa | - | - | 0 W/m² | - |
| 1778187855 | 29.44° C | 73% | 1007 hPa | - | - | 0 W/m² | - |
| 1778187745 | 30.56° C | 70% | 1007 hPa | - | - | 0 W/m² | - |
| 1778187523 | 30° C | 72% | 1007 hPa | - | - | 0 W/m² | - |
| 1778187192 | 30.56° C | 70% | 1007 hPa | - | - | 0 W/m² | - |
| 1778187078 | 30° C | 72% | 1007 hPa | - | - | 0 W/m² | - |
| 1778186970 | 30.56° C | 70% | 1007 hPa | - | - | 0 W/m² | - |
| 1778186748 | 30° C | 71% | 1007 hPa | - | - | 0 W/m² | - |
* Rain since midnight (hover to see other rain measurements)
** Current wind speed in m/s (hover to see current wind gust speed)